createdAt,value
2018-11-07T00:01:08.338Z,25.90
2018-11-07T00:03:41.194Z,25.70
2018-11-07T00:06:14.118Z,25.60
2018-11-07T00:08:46.894Z,25.40
2018-11-07T00:11:20.062Z,25.60
2018-11-07T00:13:53.056Z,25.60
2018-11-07T00:16:26.074Z,25.60
2018-11-07T00:18:59.109Z,25.70
2018-11-07T00:21:32.045Z,25.80
2018-11-07T00:24:05.203Z,26.20
2018-11-07T00:26:38.507Z,26.40
2018-11-07T00:29:11.490Z,26.30
2018-11-07T00:31:44.276Z,26.10
2018-11-07T00:34:17.048Z,26.30
2018-11-07T00:36:49.631Z,26.20
2018-11-07T00:39:22.831Z,25.80
2018-11-07T00:41:55.762Z,25.60
2018-11-07T00:44:28.781Z,25.40
2018-11-07T00:47:01.341Z,25.60
2018-11-07T00:49:34.236Z,25.90
2018-11-07T00:52:06.390Z,25.90
2018-11-07T00:54:39.439Z,25.70
2018-11-07T00:57:13.288Z,25.70
2018-11-07T00:59:45.948Z,26.00
2018-11-07T01:02:18.481Z,26.10
2018-11-07T01:04:51.607Z,26.20
2018-11-07T01:07:24.374Z,26.20
2018-11-07T01:09:57.184Z,26.20
2018-11-07T01:12:30.384Z,26.00
2018-11-07T01:15:02.642Z,25.90
2018-11-07T01:17:34.764Z,25.90
2018-11-07T01:20:08.195Z,25.90
2018-11-07T01:22:40.366Z,25.90
2018-11-07T01:25:12.728Z,25.90
2018-11-07T01:27:44.923Z,26.10
2018-11-07T01:30:17.210Z,26.00
2018-11-07T01:32:49.454Z,25.90
2018-11-07T01:35:21.682Z,25.90
2018-11-07T01:37:54.884Z,25.80
2018-11-07T01:40:27.186Z,25.90
2018-11-07T01:43:00.306Z,25.90
2018-11-07T01:45:32.591Z,26.00
2018-11-07T01:48:04.729Z,26.00
2018-11-07T01:50:37.027Z,26.00
2018-11-07T01:53:09.322Z,26.00
2018-11-07T01:55:41.591Z,26.00
2018-11-07T01:58:13.778Z,26.00
2018-11-07T02:00:46.033Z,26.00
2018-11-07T02:03:18.283Z,25.90
2018-11-07T02:05:50.728Z,25.80
2018-11-07T02:08:23.297Z,25.70
2018-11-07T02:10:55.532Z,25.80
2018-11-07T02:13:27.700Z,25.70
2018-11-07T02:16:00.103Z,25.70
2018-11-07T02:18:32.255Z,25.60
2018-11-07T02:21:04.683Z,25.50
2018-11-07T02:23:37.348Z,25.50
2018-11-07T02:26:10.883Z,25.40
2018-11-07T02:28:43.143Z,25.30
2018-11-07T02:31:15.416Z,25.30
2018-11-07T02:33:47.647Z,25.10
2018-11-07T02:36:19.952Z,25.10
2018-11-07T02:38:52.173Z,25.10
2018-11-07T02:41:24.441Z,25.10
2018-11-07T02:43:56.611Z,25.00
2018-11-07T02:46:28.998Z,25.00
2018-11-07T02:49:01.182Z,25.00
2018-11-07T02:51:34.570Z,24.90
2018-11-07T02:54:06.880Z,24.90
2018-11-07T02:56:39.176Z,24.80
2018-11-07T02:59:11.425Z,24.80
2018-11-07T03:01:44.178Z,24.80
2018-11-07T03:04:16.903Z,24.70
2018-11-07T03:06:49.644Z,24.60
2018-11-07T03:09:23.508Z,24.50
2018-11-07T03:11:56.404Z,24.60
2018-11-07T03:14:28.540Z,24.60
2018-11-07T03:17:00.821Z,24.50
2018-11-07T03:19:32.988Z,24.40
2018-11-07T03:22:05.196Z,24.40
2018-11-07T03:24:37.403Z,24.40
2018-11-07T03:27:10.526Z,24.40
2018-11-07T03:29:42.694Z,24.40
2018-11-07T03:32:14.876Z,24.40
2018-11-07T03:34:47.625Z,24.40
2018-11-07T03:37:19.917Z,24.20
2018-11-07T03:39:52.229Z,24.10
2018-11-07T03:42:24.475Z,24.10
2018-11-07T03:44:56.631Z,24.10
2018-11-07T03:47:30.059Z,24.20
2018-11-07T03:50:02.653Z,24.00
2018-11-07T03:52:35.356Z,24.10
2018-11-07T03:55:08.535Z,24.00
2018-11-07T03:57:41.390Z,23.80
2018-11-07T04:00:13.935Z,23.80
2018-11-07T04:02:46.685Z,23.70
2018-11-07T04:05:19.359Z,23.80
2018-11-07T04:07:52.657Z,23.80
2018-11-07T04:10:24.794Z,23.80
2018-11-07T04:12:57.083Z,23.80
2018-11-07T04:15:29.337Z,23.80
2018-11-07T04:18:01.705Z,23.80
2018-11-07T04:20:34.058Z,23.80
2018-11-07T04:23:06.772Z,23.70
2018-11-07T04:25:46.985Z,23.70
2018-11-07T04:28:19.688Z,23.60
2018-11-07T04:30:52.755Z,23.60
2018-11-07T04:33:25.673Z,23.60
2018-11-07T04:35:58.521Z,23.50
2018-11-07T04:38:31.333Z,23.50
2018-11-07T04:41:03.488Z,23.50
2018-11-07T04:43:35.691Z,23.50
2018-11-07T04:46:08.578Z,23.50
2018-11-07T04:48:41.922Z,23.50
2018-11-07T04:51:15.041Z,23.40
2018-11-07T04:53:47.327Z,23.30
2018-11-07T04:56:19.540Z,23.30
2018-11-07T04:58:51.753Z,23.30
2018-11-07T05:01:24.074Z,23.30
2018-11-07T05:03:56.631Z,23.30
2018-11-07T05:06:29.227Z,23.20
2018-11-07T05:09:02.137Z,23.00
2018-11-07T05:11:35.244Z,23.00
2018-11-07T05:14:08.193Z,23.00
2018-11-07T05:16:41.111Z,23.00
2018-11-07T05:19:14.162Z,22.80
2018-11-07T05:21:46.765Z,22.90
2018-11-07T05:24:19.924Z,22.90
2018-11-07T05:26:52.827Z,22.90
2018-11-07T05:29:25.043Z,22.80
2018-11-07T05:31:57.213Z,22.70
2018-11-07T05:34:29.468Z,22.80
2018-11-07T05:37:01.685Z,22.70
2018-11-07T05:39:33.894Z,22.50
2018-11-07T05:42:06.336Z,22.60
2018-11-07T05:44:38.715Z,22.40
2018-11-07T05:47:10.934Z,22.50
2018-11-07T05:49:43.339Z,22.20
2018-11-07T05:52:16.693Z,22.30
2018-11-07T05:54:50.020Z,22.40
2018-11-07T05:57:23.188Z,22.20
2018-11-07T05:59:56.203Z,22.30
2018-11-07T06:02:29.350Z,22.40
2018-11-07T06:05:02.351Z,22.50
2018-11-07T06:07:34.986Z,22.20
2018-11-07T06:10:08.945Z,22.30
2018-11-07T06:12:41.772Z,22.40
2018-11-07T06:15:14.703Z,22.30
2018-11-07T06:17:47.497Z,22.40
2018-11-07T06:20:20.359Z,22.30
2018-11-07T06:22:52.904Z,21.80
2018-11-07T06:25:25.741Z,21.70
2018-11-07T06:27:58.222Z,21.80
2018-11-07T06:30:31.230Z,21.90
2018-11-07T06:33:04.051Z,21.50
2018-11-07T06:35:36.665Z,21.60
2018-11-07T06:38:09.490Z,21.70
2018-11-07T06:40:43.055Z,21.90
2018-11-07T06:43:16.096Z,21.90
2018-11-07T06:45:49.064Z,21.80
2018-11-07T06:48:22.072Z,21.70
2018-11-07T06:50:55.013Z,21.70
2018-11-07T06:53:27.954Z,21.90
2018-11-07T06:56:00.280Z,22.10
2018-11-07T06:58:32.495Z,22.30
2018-11-07T07:01:04.751Z,22.30
2018-11-07T07:03:36.931Z,22.10
2018-11-07T07:06:09.225Z,22.00
2018-11-07T07:08:41.426Z,22.40
2018-11-07T07:11:13.915Z,22.30
2018-11-07T07:13:46.081Z,22.40
2018-11-07T07:16:19.006Z,22.60
2018-11-07T07:18:51.579Z,22.50
2018-11-07T07:21:24.377Z,22.60
2018-11-07T07:23:57.327Z,22.70
2018-11-07T07:26:30.213Z,22.50
2018-11-07T07:29:02.905Z,22.40
2018-11-07T07:31:37.700Z,22.20
2018-11-07T07:34:10.474Z,22.20
2018-11-07T07:36:42.778Z,22.30
2018-11-07T07:39:14.958Z,22.20
2018-11-07T07:41:47.270Z,22.10
2018-11-07T07:44:19.452Z,22.30
2018-11-07T07:46:52.403Z,22.30
2018-11-07T07:49:25.221Z,22.20
2018-11-07T07:51:58.367Z,22.10
2018-11-07T07:54:31.536Z,22.10
2018-11-07T07:57:04.343Z,22.00
2018-11-07T07:59:37.174Z,21.80
2018-11-07T08:02:09.946Z,21.90
2018-11-07T08:04:42.597Z,21.90
2018-11-07T08:07:15.238Z,22.00
2018-11-07T08:09:47.963Z,22.20
2018-11-07T08:12:20.917Z,22.30
2018-11-07T08:14:53.734Z,22.50
2018-11-07T08:17:26.801Z,22.50
2018-11-07T08:19:59.526Z,22.30
2018-11-07T08:22:32.298Z,22.30
2018-11-07T08:25:04.873Z,22.20
2018-11-07T08:27:37.215Z,22.30
2018-11-07T08:30:13.147Z,22.20
2018-11-07T08:32:46.254Z,22.10
2018-11-07T08:35:18.907Z,22.10
2018-11-07T08:37:52.043Z,22.10
2018-11-07T08:40:25.629Z,22.20
2018-11-07T08:42:58.344Z,22.30
2018-11-07T08:45:31.132Z,22.30
2018-11-07T08:48:03.508Z,22.10
2018-11-07T08:50:35.743Z,22.20
2018-11-07T08:53:08.778Z,22.30
2018-11-07T08:55:41.574Z,22.30
2018-11-07T08:58:14.703Z,22.20
2018-11-07T09:00:47.391Z,22.10
2018-11-07T09:03:20.212Z,21.90
2018-11-07T09:05:52.960Z,22.00
2018-11-07T09:08:25.806Z,22.10
2018-11-07T09:10:58.622Z,22.20
2018-11-07T09:13:31.805Z,22.20
2018-11-07T09:16:04.329Z,22.10
2018-11-07T09:18:37.107Z,22.10
2018-11-07T09:21:09.813Z,22.10
2018-11-07T09:23:42.087Z,22.10
2018-11-07T09:26:14.216Z,21.90
2018-11-07T09:28:46.503Z,21.90
2018-11-07T09:31:19.186Z,21.80
2018-11-07T09:33:52.618Z,21.60
2018-11-07T09:36:25.390Z,21.50
2018-11-07T09:38:57.638Z,21.60
2018-11-07T09:41:29.823Z,21.70
2018-11-07T09:44:02.037Z,21.70
2018-11-07T09:46:34.929Z,21.60
2018-11-07T09:49:07.897Z,21.40
2018-11-07T09:51:40.723Z,21.40
2018-11-07T09:54:13.158Z,21.70
2018-11-07T09:56:45.911Z,21.60
2018-11-07T09:59:18.967Z,21.80
2018-11-07T10:01:51.565Z,21.90
2018-11-07T10:04:24.763Z,22.00
2018-11-07T10:06:57.923Z,22.00
2018-11-07T10:09:30.704Z,21.90
2018-11-07T10:12:03.364Z,21.60
2018-11-07T10:14:36.302Z,21.70
2018-11-07T10:17:08.884Z,21.90
2018-11-07T10:19:41.901Z,21.80
2018-11-07T10:22:14.834Z,21.80
2018-11-07T10:24:47.824Z,21.90
2018-11-07T10:27:20.996Z,21.90
2018-11-07T10:29:54.721Z,21.90
2018-11-07T10:32:27.953Z,21.80
2018-11-07T10:35:00.956Z,21.80
2018-11-07T10:37:33.182Z,21.60
2018-11-07T10:40:05.811Z,21.30
2018-11-07T10:42:38.080Z,21.20
2018-11-07T10:45:12.185Z,21.10
2018-11-07T10:47:46.255Z,20.90
2018-11-07T10:50:20.175Z,20.90
2018-11-07T10:52:53.140Z,20.80
2018-11-07T10:55:26.330Z,21.00
2018-11-07T10:57:59.160Z,21.10
2018-11-07T11:00:36.495Z,21.10
2018-11-07T11:03:13.620Z,20.90
2018-11-07T11:05:46.483Z,20.90
2018-11-07T11:08:19.037Z,20.90
2018-11-07T11:10:51.779Z,21.20
2018-11-07T11:13:24.729Z,21.40
2018-11-07T11:15:57.831Z,21.40
2018-11-07T11:18:32.832Z,21.50
2018-11-07T11:21:05.199Z,21.60
2018-11-07T11:23:37.399Z,21.50
2018-11-07T11:26:10.047Z,21.40
2018-11-07T11:28:42.197Z,21.50
2018-11-07T11:31:14.484Z,21.60
2018-11-07T11:33:46.737Z,21.60
2018-11-07T11:36:19.318Z,21.60
2018-11-07T11:38:51.443Z,21.70
2018-11-07T11:41:23.774Z,21.80
2018-11-07T11:43:56.468Z,21.70
2018-11-07T11:46:28.678Z,21.80
2018-11-07T11:49:01.024Z,21.60
2018-11-07T11:51:33.487Z,21.50
2018-11-07T11:54:05.596Z,21.40
2018-11-07T11:56:38.074Z,21.10
2018-11-07T11:59:10.295Z,20.80
2018-11-07T12:01:42.600Z,20.90
2018-11-07T12:04:15.690Z,21.00
2018-11-07T12:06:48.595Z,21.00
2018-11-07T12:09:21.450Z,21.00
2018-11-07T12:11:54.591Z,20.90
2018-11-07T12:14:27.586Z,20.80
2018-11-07T12:17:00.109Z,20.60
2018-11-07T12:19:32.262Z,20.60
2018-11-07T12:22:04.566Z,20.70
2018-11-07T12:24:36.709Z,20.80
2018-11-07T12:27:09.116Z,20.70
2018-11-07T12:29:41.345Z,20.70
2018-11-07T12:32:13.598Z,20.70
2018-11-07T12:34:45.775Z,20.70
2018-11-07T12:37:18.402Z,20.70
2018-11-07T12:39:50.610Z,20.60
2018-11-07T12:42:23.641Z,20.70
2018-11-07T12:44:56.465Z,20.80
2018-11-07T12:47:29.343Z,20.80
2018-11-07T12:50:02.502Z,20.70
2018-11-07T12:52:35.476Z,20.80
2018-11-07T12:55:08.965Z,21.00
2018-11-07T12:57:41.938Z,21.00
2018-11-07T13:00:21.038Z,21.00
2018-11-07T13:02:53.951Z,21.10
2018-11-07T13:05:27.921Z,21.10
2018-11-07T13:08:01.071Z,21.10
2018-11-07T13:10:33.880Z,21.00
2018-11-07T13:13:06.903Z,21.10
2018-11-07T13:15:39.029Z,21.10
2018-11-07T13:18:11.372Z,21.10
2018-11-07T13:20:43.724Z,21.10
2018-11-07T13:23:16.689Z,21.40
2018-11-07T13:25:49.777Z,21.70
2018-11-07T13:28:22.671Z,22.20
2018-11-07T13:30:55.658Z,22.80
2018-11-07T13:33:27.915Z,22.90
2018-11-07T13:36:00.965Z,22.80
2018-11-07T13:38:33.649Z,22.60
2018-11-07T13:41:06.100Z,22.60
2018-11-07T13:43:38.476Z,22.50
2018-11-07T13:46:10.800Z,22.40
2018-11-07T13:48:43.419Z,22.30
2018-11-07T13:51:15.603Z,22.30
2018-11-07T13:53:47.959Z,22.20
2018-11-07T13:56:20.357Z,22.10
2018-11-07T13:58:53.042Z,22.20
2018-11-07T14:01:25.395Z,22.10
2018-11-07T14:06:48.746Z,22.50
2018-11-07T14:09:21.041Z,22.90
2018-11-07T14:11:53.650Z,22.80
2018-11-07T14:14:26.060Z,22.60
2018-11-07T14:16:58.579Z,22.50
2018-11-07T14:19:31.122Z,22.50
2018-11-07T14:22:03.440Z,22.80
2018-11-07T14:24:35.876Z,23.00
2018-11-07T14:27:08.451Z,23.40
2018-11-07T14:29:41.057Z,23.50
2018-11-07T14:32:15.329Z,23.60
2018-11-07T14:34:49.501Z,23.60
2018-11-07T14:37:22.990Z,24.00
2018-11-07T14:39:55.275Z,24.30
2018-11-07T14:42:30.819Z,24.60
2018-11-07T14:45:04.127Z,24.50
2018-11-07T14:47:36.594Z,24.20
2018-11-07T14:50:11.498Z,24.20
2018-11-07T14:52:44.528Z,24.70
2018-11-07T14:55:16.700Z,24.90
2018-11-07T14:57:49.289Z,25.10
2018-11-07T15:00:22.863Z,25.60
2018-11-07T15:02:55.498Z,26.10
2018-11-07T15:05:28.963Z,26.30
2018-11-07T15:08:01.982Z,26.20
2018-11-07T15:10:34.391Z,25.90
2018-11-07T15:13:06.708Z,26.00
2018-11-07T15:15:39.011Z,26.10
2018-11-07T15:18:11.506Z,25.50
2018-11-07T15:20:44.874Z,25.70
2018-11-07T15:23:17.268Z,26.30
2018-11-07T15:25:49.756Z,26.70
2018-11-07T15:28:22.392Z,26.80
2018-11-07T15:30:54.690Z,27.30
2018-11-07T15:33:27.015Z,27.70
2018-11-07T15:35:59.297Z,28.60
2018-11-07T15:38:32.511Z,29.10
2018-11-07T15:41:04.797Z,29.30
2018-11-07T15:43:37.435Z,29.40
2018-11-07T15:46:09.725Z,30.10
2018-11-07T15:48:42.075Z,30.50
2018-11-07T15:51:18.167Z,30.70
2018-11-07T15:53:52.053Z,30.90
2018-11-07T15:56:24.451Z,31.10
2018-11-07T15:58:57.771Z,30.70
2018-11-07T16:01:30.327Z,30.00
2018-11-07T16:04:03.508Z,30.10
2018-11-07T16:06:35.936Z,30.30
2018-11-07T16:09:10.829Z,30.50
2018-11-07T16:11:43.076Z,30.40
2018-11-07T16:14:15.646Z,30.80
2018-11-07T16:16:47.925Z,30.90
2018-11-07T16:19:21.492Z,31.10
2018-11-07T16:21:53.997Z,31.90
2018-11-07T16:24:26.554Z,31.90
2018-11-07T16:26:58.860Z,31.00
2018-11-07T16:29:31.622Z,30.00
2018-11-07T16:32:03.943Z,30.10
2018-11-07T16:34:36.418Z,30.90
2018-11-07T16:37:08.756Z,31.30
2018-11-07T16:39:43.055Z,31.40
2018-11-07T16:42:16.966Z,31.30
2018-11-07T16:44:50.265Z,31.70
2018-11-07T16:47:22.649Z,31.10
2018-11-07T16:49:55.113Z,31.80
2018-11-07T16:52:27.433Z,31.50
2018-11-07T16:54:59.911Z,31.30
2018-11-07T16:57:36.325Z,31.50
2018-11-07T17:00:13.047Z,31.50
2018-11-07T17:02:46.208Z,32.00
2018-11-07T17:05:19.214Z,31.70
2018-11-07T17:07:52.302Z,31.20
2018-11-07T17:10:25.215Z,30.70
2018-11-07T17:12:57.893Z,30.00
2018-11-07T17:15:30.739Z,30.00
2018-11-07T17:18:03.696Z,30.40
2018-11-07T17:20:36.778Z,31.20
2018-11-07T17:23:10.549Z,30.70
2018-11-07T17:25:43.639Z,31.70
2018-11-07T17:28:15.983Z,31.00
2018-11-07T17:30:48.597Z,31.40
2018-11-07T17:33:21.494Z,32.00
2018-11-07T17:35:54.347Z,31.60
2018-11-07T17:38:26.618Z,31.70
2018-11-07T17:40:59.699Z,32.00
2018-11-07T17:43:32.345Z,31.70
2018-11-07T17:46:05.197Z,31.80
2018-11-07T17:48:37.794Z,31.40
2018-11-07T17:51:10.301Z,31.30
2018-11-07T17:53:43.131Z,31.40
2018-11-07T17:56:15.930Z,31.10
2018-11-07T17:58:48.897Z,31.10
2018-11-07T18:01:21.955Z,31.50
2018-11-07T18:03:54.426Z,32.30
2018-11-07T18:06:26.926Z,32.80
2018-11-07T18:08:59.535Z,32.80
2018-11-07T18:11:32.805Z,32.60
2018-11-07T18:14:05.908Z,32.20
2018-11-07T18:16:38.570Z,32.30
2018-11-07T18:19:11.614Z,31.40
2018-11-07T18:21:45.600Z,31.30
2018-11-07T18:24:18.772Z,30.10
2018-11-07T18:26:51.628Z,30.50
2018-11-07T18:29:23.967Z,30.30
2018-11-07T18:31:56.685Z,30.30
2018-11-07T18:34:29.343Z,30.30
2018-11-07T18:37:01.668Z,31.00
2018-11-07T18:39:34.721Z,31.50
2018-11-07T18:42:07.103Z,32.10
2018-11-07T18:44:42.205Z,32.20
2018-11-07T18:47:15.562Z,31.80
2018-11-07T18:49:49.087Z,32.80
2018-11-07T18:52:22.013Z,32.40
2018-11-07T18:54:54.780Z,33.00
2018-11-07T18:57:28.595Z,33.30
2018-11-07T19:00:01.100Z,32.90
2018-11-07T19:02:34.673Z,32.80
2018-11-07T19:05:07.873Z,33.00
2018-11-07T19:07:40.663Z,32.60
2018-11-07T19:10:16.494Z,32.50
2018-11-07T19:12:49.440Z,31.80
2018-11-07T19:15:23.515Z,30.50
2018-11-07T19:17:56.480Z,30.10
2018-11-07T19:20:28.700Z,30.60
2018-11-07T19:23:01.529Z,31.30
2018-11-07T19:25:34.502Z,31.40
2018-11-07T19:28:07.320Z,31.00
2018-11-07T19:30:40.046Z,31.00
2018-11-07T19:33:13.305Z,31.20
2018-11-07T19:35:46.429Z,31.60
2018-11-07T19:38:18.746Z,31.80
2018-11-07T19:40:51.946Z,31.50
2018-11-07T19:43:24.316Z,31.20
2018-11-07T19:45:56.792Z,31.40
2018-11-07T19:48:29.059Z,32.00
2018-11-07T19:51:01.421Z,31.90
2018-11-07T19:53:33.808Z,31.80
2018-11-07T19:56:06.870Z,31.80
2018-11-07T19:58:39.498Z,31.70
2018-11-07T20:01:12.640Z,31.30
2018-11-07T20:03:45.918Z,31.60
2018-11-07T20:06:18.534Z,31.70
2018-11-07T20:08:51.425Z,30.00
2018-11-07T20:11:24.035Z,29.40
2018-11-07T20:13:59.322Z,29.10
2018-11-07T20:16:34.283Z,29.30
2018-11-07T20:19:07.825Z,29.50
2018-11-07T20:21:40.718Z,29.20
2018-11-07T20:24:13.716Z,29.20
2018-11-07T20:26:46.876Z,28.50
2018-11-07T20:29:19.531Z,29.10
2018-11-07T20:31:53.991Z,29.10
2018-11-07T20:34:27.333Z,29.60
2018-11-07T20:37:00.448Z,29.70
2018-11-07T20:39:33.900Z,30.50
2018-11-07T20:42:07.754Z,29.40
2018-11-07T20:44:40.826Z,29.30
2018-11-07T20:47:13.569Z,28.80
2018-11-07T20:49:45.921Z,28.10
2018-11-07T20:52:18.211Z,28.20
2018-11-07T20:54:50.609Z,28.60
2018-11-07T20:57:23.056Z,29.00
2018-11-07T20:59:57.890Z,28.50
2018-11-07T21:02:32.660Z,28.40
2018-11-07T21:05:07.623Z,28.20
2018-11-07T21:07:40.822Z,28.30
2018-11-07T21:10:18.540Z,27.60
2018-11-07T21:12:52.471Z,27.30
2018-11-07T21:15:25.491Z,27.40
2018-11-07T21:17:59.448Z,28.00
2018-11-07T21:20:33.185Z,28.20
2018-11-07T21:23:05.476Z,28.30
2018-11-07T21:25:38.289Z,28.00
2018-11-07T21:28:11.155Z,28.10
2018-11-07T21:30:44.413Z,28.40
2018-11-07T21:33:17.086Z,28.50
2018-11-07T21:35:49.396Z,28.50
2018-11-07T21:38:22.252Z,28.40
2018-11-07T21:40:54.848Z,28.10
2018-11-07T21:43:27.416Z,27.80
2018-11-07T21:46:00.603Z,28.00
2018-11-07T21:48:33.403Z,28.20
2018-11-07T21:51:06.374Z,27.90
2018-11-07T21:53:39.125Z,28.10
2018-11-07T21:56:11.931Z,28.20
2018-11-07T21:58:44.032Z,28.30
2018-11-07T22:01:17.067Z,27.90
2018-11-07T22:03:49.950Z,27.20
2018-11-07T22:06:22.558Z,27.30
2018-11-07T22:08:55.445Z,27.40
2018-11-07T22:14:08.699Z,27.40
2018-11-07T22:16:41.066Z,27.20
2018-11-07T22:19:13.461Z,27.40
2018-11-07T22:21:46.478Z,27.10
2018-11-07T22:24:19.905Z,27.00
2018-11-07T22:26:52.373Z,27.20
2018-11-07T22:29:25.466Z,27.30
2018-11-07T22:31:58.960Z,27.50
2018-11-07T22:34:31.863Z,27.40
2018-11-07T22:37:04.647Z,27.30
2018-11-07T22:39:37.386Z,27.20
2018-11-07T22:42:11.139Z,27.00
2018-11-07T22:44:43.853Z,26.90
2018-11-07T22:47:16.198Z,26.50
2018-11-07T22:49:48.610Z,26.40
2018-11-07T22:52:21.204Z,25.90
2018-11-07T22:54:54.013Z,25.90
2018-11-07T22:57:26.563Z,25.80
2018-11-07T22:59:59.684Z,25.80
2018-11-07T23:02:34.157Z,25.70
2018-11-07T23:05:07.603Z,25.60
2018-11-07T23:07:41.679Z,25.80
2018-11-07T23:10:14.988Z,25.80
2018-11-07T23:12:49.286Z,25.70
2018-11-07T23:15:26.146Z,25.70
2018-11-07T23:17:58.597Z,25.80
2018-11-07T23:20:30.930Z,25.80
2018-11-07T23:23:03.893Z,25.70
2018-11-07T23:28:17.372Z,25.60
2018-11-07T23:30:50.203Z,25.60
2018-11-07T23:33:22.874Z,25.50
2018-11-07T23:35:55.674Z,25.40
2018-11-07T23:38:28.475Z,25.30
2018-11-07T23:41:01.306Z,25.30
2018-11-07T23:43:34.540Z,25.20
2018-11-07T23:46:08.008Z,25.10
2018-11-07T23:48:46.743Z,25.10
2018-11-07T23:51:19.401Z,25.10
2018-11-07T23:53:56.532Z,25.00
2018-11-07T23:56:29.428Z,24.90
2018-11-07T23:59:02.332Z,24.90
